sensor_id;sensor_type;location;lat;lon;timestamp;P1;durP1;ratioP1;P2;durP2;ratioP2
42600;SDS011;28229;48.856;9.088;2022-10-16T00:01:11;3.30;;;1.30;;
42600;SDS011;28229;48.856;9.088;2022-10-16T00:03:39;1.70;;;1.23;;
42600;SDS011;28229;48.856;9.088;2022-10-16T00:06:06;1.67;;;1.30;;
42600;SDS011;28229;48.856;9.088;2022-10-16T00:08:33;1.67;;;1.20;;
42600;SDS011;28229;48.856;9.088;2022-10-16T00:11:00;1.30;;;1.20;;
42600;SDS011;28229;48.856;9.088;2022-10-16T00:13:31;3.23;;;1.27;;
42600;SDS011;28229;48.856;9.088;2022-10-16T00:15:58;3.27;;;1.30;;
42600;SDS011;28229;48.856;9.088;2022-10-16T00:18:26;1.90;;;1.40;;
42600;SDS011;28229;48.856;9.088;2022-10-16T00:20:52;1.50;;;1.40;;
42600;SDS011;28229;48.856;9.088;2022-10-16T00:23:18;3.00;;;1.40;;
42600;SDS011;28229;48.856;9.088;2022-10-16T00:25:45;2.07;;;1.37;;
42600;SDS011;28229;48.856;9.088;2022-10-16T00:28:20;2.23;;;1.40;;
42600;SDS011;28229;48.856;9.088;2022-10-16T00:30:46;1.67;;;1.30;;
42600;SDS011;28229;48.856;9.088;2022-10-16T00:33:12;2.33;;;1.30;;
42600;SDS011;28229;48.856;9.088;2022-10-16T00:35:37;1.70;;;1.30;;
42600;SDS011;28229;48.856;9.088;2022-10-16T00:38:03;1.30;;;1.20;;
42600;SDS011;28229;48.856;9.088;2022-10-16T00:40:29;3.43;;;1.50;;
42600;SDS011;28229;48.856;9.088;2022-10-16T00:42:55;2.17;;;1.37;;
42600;SDS011;28229;48.856;9.088;2022-10-16T00:45:21;2.87;;;1.40;;
42600;SDS011;28229;48.856;9.088;2022-10-16T00:47:46;2.00;;;1.37;;
42600;SDS011;28229;48.856;9.088;2022-10-16T00:50:37;2.00;;;1.37;;
42600;SDS011;28229;48.856;9.088;2022-10-16T00:53:03;2.87;;;1.23;;
42600;SDS011;28229;48.856;9.088;2022-10-16T00:55:29;3.13;;;1.50;;
42600;SDS011;28229;48.856;9.088;2022-10-16T00:57:56;2.03;;;1.23;;
42600;SDS011;28229;48.856;9.088;2022-10-16T01:00:24;1.40;;;1.30;;
42600;SDS011;28229;48.856;9.088;2022-10-16T01:02:55;1.23;;;1.13;;
42600;SDS011;28229;48.856;9.088;2022-10-16T01:05:23;1.57;;;1.20;;
42600;SDS011;28229;48.856;9.088;2022-10-16T01:07:58;2.20;;;1.37;;
42600;SDS011;28229;48.856;9.088;2022-10-16T01:10:35;3.33;;;1.60;;
42600;SDS011;28229;48.856;9.088;2022-10-16T01:13:07;2.57;;;1.40;;
42600;SDS011;28229;48.856;9.088;2022-10-16T01:15:43;1.73;;;1.30;;
42600;SDS011;28229;48.856;9.088;2022-10-16T01:18:34;1.30;;;1.17;;
42600;SDS011;28229;48.856;9.088;2022-10-16T01:21:10;1.40;;;1.30;;
42600;SDS011;28229;48.856;9.088;2022-10-16T01:29:03;3.10;;;1.30;;
42600;SDS011;28229;48.856;9.088;2022-10-16T01:31:35;1.50;;;1.40;;
42600;SDS011;28229;48.856;9.088;2022-10-16T01:34:06;1.83;;;1.30;;
42600;SDS011;28229;48.856;9.088;2022-10-16T01:36:41;1.40;;;1.30;;
42600;SDS011;28229;48.856;9.088;2022-10-16T01:39:12;1.40;;;1.30;;
42600;SDS011;28229;48.856;9.088;2022-10-16T01:41:44;5.17;;;1.50;;
42600;SDS011;28229;48.856;9.088;2022-10-16T01:44:16;1.20;;;1.20;;
42600;SDS011;28229;48.856;9.088;2022-10-16T01:46:46;1.50;;;1.40;;
42600;SDS011;28229;48.856;9.088;2022-10-16T01:49:15;3.17;;;1.40;;
42600;SDS011;28229;48.856;9.088;2022-10-16T01:51:43;1.40;;;1.30;;
42600;SDS011;28229;48.856;9.088;2022-10-16T01:54:13;1.43;;;1.33;;
42600;SDS011;28229;48.856;9.088;2022-10-16T01:56:41;1.40;;;1.30;;
42600;SDS011;28229;48.856;9.088;2022-10-16T01:59:15;1.77;;;1.40;;
42600;SDS011;28229;48.856;9.088;2022-10-16T02:01:47;1.87;;;1.20;;
42600;SDS011;28229;48.856;9.088;2022-10-16T02:04:17;1.40;;;1.20;;
42600;SDS011;28229;48.856;9.088;2022-10-16T02:06:48;2.20;;;1.23;;
42600;SDS011;28229;48.856;9.088;2022-10-16T02:09:14;3.90;;;1.40;;
42600;SDS011;28229;48.856;9.088;2022-10-16T02:11:42;2.00;;;1.20;;
42600;SDS011;28229;48.856;9.088;2022-10-16T02:14:09;2.30;;;1.43;;
42600;SDS011;28229;48.856;9.088;2022-10-16T02:16:36;2.70;;;1.40;;
42600;SDS011;28229;48.856;9.088;2022-10-16T02:19:04;2.63;;;1.30;;
42600;SDS011;28229;48.856;9.088;2022-10-16T02:21:33;3.57;;;1.40;;
42600;SDS011;28229;48.856;9.088;2022-10-16T02:24:17;1.33;;;1.23;;
42600;SDS011;28229;48.856;9.088;2022-10-16T02:29:31;1.60;;;1.50;;
42600;SDS011;28229;48.856;9.088;2022-10-16T02:32:01;1.30;;;1.20;;
42600;SDS011;28229;48.856;9.088;2022-10-16T02:34:30;1.57;;;1.47;;
42600;SDS011;28229;48.856;9.088;2022-10-16T02:36:58;1.60;;;1.20;;
42600;SDS011;28229;48.856;9.088;2022-10-16T02:39:27;1.47;;;1.37;;
42600;SDS011;28229;48.856;9.088;2022-10-16T02:41:54;1.80;;;1.27;;
42600;SDS011;28229;48.856;9.088;2022-10-16T02:44:20;2.03;;;1.40;;
42600;SDS011;28229;48.856;9.088;2022-10-16T02:46:46;1.53;;;1.20;;
42600;SDS011;28229;48.856;9.088;2022-10-16T02:49:12;1.13;;;1.10;;
42600;SDS011;28229;48.856;9.088;2022-10-16T02:51:38;1.40;;;1.30;;
42600;SDS011;28229;48.856;9.088;2022-10-16T02:54:04;1.27;;;1.17;;
42600;SDS011;28229;48.856;9.088;2022-10-16T02:56:29;1.40;;;1.30;;
42600;SDS011;28229;48.856;9.088;2022-10-16T02:58:56;1.43;;;1.33;;
42600;SDS011;28229;48.856;9.088;2022-10-16T03:01:23;3.33;;;1.50;;
42600;SDS011;28229;48.856;9.088;2022-10-16T03:03:49;1.70;;;1.23;;
42600;SDS011;28229;48.856;9.088;2022-10-16T03:06:15;1.87;;;1.50;;
42600;SDS011;28229;48.856;9.088;2022-10-16T03:08:41;1.50;;;1.40;;
42600;SDS011;28229;48.856;9.088;2022-10-16T03:11:06;1.60;;;1.30;;
42600;SDS011;28229;48.856;9.088;2022-10-16T03:13:32;2.00;;;1.60;;
42600;SDS011;28229;48.856;9.088;2022-10-16T03:15:58;1.60;;;1.30;;
42600;SDS011;28229;48.856;9.088;2022-10-16T03:18:24;2.20;;;1.50;;
42600;SDS011;28229;48.856;9.088;2022-10-16T03:20:50;1.83;;;1.40;;
42600;SDS011;28229;48.856;9.088;2022-10-16T03:23:15;2.00;;;1.70;;
42600;SDS011;28229;48.856;9.088;2022-10-16T03:25:41;2.90;;;1.40;;
42600;SDS011;28229;48.856;9.088;2022-10-16T03:28:07;1.60;;;1.50;;
42600;SDS011;28229;48.856;9.088;2022-10-16T03:30:33;1.40;;;1.30;;
42600;SDS011;28229;48.856;9.088;2022-10-16T03:32:59;1.57;;;1.47;;
42600;SDS011;28229;48.856;9.088;2022-10-16T03:35:25;1.33;;;1.20;;
42600;SDS011;28229;48.856;9.088;2022-10-16T03:37:51;1.93;;;1.40;;
42600;SDS011;28229;48.856;9.088;2022-10-16T03:40:17;1.40;;;1.30;;
42600;SDS011;28229;48.856;9.088;2022-10-16T03:42:43;2.10;;;1.40;;
42600;SDS011;28229;48.856;9.088;2022-10-16T03:45:09;2.63;;;1.50;;
42600;SDS011;28229;48.856;9.088;2022-10-16T03:47:35;2.10;;;1.50;;
42600;SDS011;28229;48.856;9.088;2022-10-16T03:50:02;1.93;;;1.30;;
42600;SDS011;28229;48.856;9.088;2022-10-16T03:52:29;1.40;;;1.30;;
42600;SDS011;28229;48.856;9.088;2022-10-16T03:54:55;1.40;;;1.27;;
42600;SDS011;28229;48.856;9.088;2022-10-16T03:57:21;1.20;;;1.10;;
42600;SDS011;28229;48.856;9.088;2022-10-16T03:59:47;4.20;;;1.57;;
42600;SDS011;28229;48.856;9.088;2022-10-16T04:02:13;3.07;;;1.40;;
42600;SDS011;28229;48.856;9.088;2022-10-16T04:04:39;1.43;;;1.23;;
42600;SDS011;28229;48.856;9.088;2022-10-16T04:07:04;1.40;;;1.30;;
42600;SDS011;28229;48.856;9.088;2022-10-16T04:09:30;1.20;;;1.20;;
42600;SDS011;28229;48.856;9.088;2022-10-16T04:11:56;2.20;;;1.43;;
42600;SDS011;28229;48.856;9.088;2022-10-16T04:14:22;1.40;;;1.30;;
42600;SDS011;28229;48.856;9.088;2022-10-16T04:16:47;1.73;;;1.27;;
42600;SDS011;28229;48.856;9.088;2022-10-16T04:19:13;3.07;;;1.50;;
42600;SDS011;28229;48.856;9.088;2022-10-16T04:21:39;1.73;;;1.63;;
42600;SDS011;28229;48.856;9.088;2022-10-16T04:24:05;2.67;;;1.53;;
42600;SDS011;28229;48.856;9.088;2022-10-16T04:26:31;1.73;;;1.63;;
42600;SDS011;28229;48.856;9.088;2022-10-16T04:28:57;2.00;;;1.37;;
42600;SDS011;28229;48.856;9.088;2022-10-16T04:31:22;3.90;;;1.30;;
42600;SDS011;28229;48.856;9.088;2022-10-16T04:33:48;1.27;;;1.27;;
42600;SDS011;28229;48.856;9.088;2022-10-16T04:36:14;2.20;;;1.50;;
42600;SDS011;28229;48.856;9.088;2022-10-16T04:38:40;5.57;;;1.50;;
42600;SDS011;28229;48.856;9.088;2022-10-16T04:41:06;2.83;;;1.43;;
42600;SDS011;28229;48.856;9.088;2022-10-16T04:43:33;2.83;;;1.60;;
42600;SDS011;28229;48.856;9.088;2022-10-16T04:45:59;1.67;;;1.57;;
42600;SDS011;28229;48.856;9.088;2022-10-16T04:48:24;4.03;;;1.70;;
42600;SDS011;28229;48.856;9.088;2022-10-16T04:50:50;3.70;;;1.60;;
42600;SDS011;28229;48.856;9.088;2022-10-16T04:53:16;1.77;;;1.40;;
42600;SDS011;28229;48.856;9.088;2022-10-16T04:55:43;1.57;;;1.47;;
42600;SDS011;28229;48.856;9.088;2022-10-16T04:58:09;2.60;;;1.60;;
42600;SDS011;28229;48.856;9.088;2022-10-16T05:00:35;3.10;;;1.53;;
42600;SDS011;28229;48.856;9.088;2022-10-16T05:03:01;1.70;;;1.60;;
42600;SDS011;28229;48.856;9.088;2022-10-16T05:05:31;1.83;;;1.40;;
42600;SDS011;28229;48.856;9.088;2022-10-16T05:07:57;2.30;;;1.57;;
42600;SDS011;28229;48.856;9.088;2022-10-16T05:10:23;3.50;;;1.57;;
42600;SDS011;28229;48.856;9.088;2022-10-16T05:12:48;2.37;;;1.60;;
42600;SDS011;28229;48.856;9.088;2022-10-16T05:15:15;3.10;;;1.90;;
42600;SDS011;28229;48.856;9.088;2022-10-16T05:17:41;2.13;;;1.80;;
42600;SDS011;28229;48.856;9.088;2022-10-16T05:20:07;2.50;;;1.70;;
42600;SDS011;28229;48.856;9.088;2022-10-16T05:22:33;3.80;;;1.70;;
42600;SDS011;28229;48.856;9.088;2022-10-16T05:24:58;3.37;;;2.00;;
42600;SDS011;28229;48.856;9.088;2022-10-16T05:27:24;1.63;;;1.53;;
42600;SDS011;28229;48.856;9.088;2022-10-16T05:29:50;1.43;;;1.33;;
42600;SDS011;28229;48.856;9.088;2022-10-16T05:32:16;2.63;;;1.43;;
42600;SDS011;28229;48.856;9.088;2022-10-16T05:34:43;2.30;;;1.50;;
42600;SDS011;28229;48.856;9.088;2022-10-16T05:37:09;1.60;;;1.50;;
42600;SDS011;28229;48.856;9.088;2022-10-16T05:39:44;1.73;;;1.30;;
42600;SDS011;28229;48.856;9.088;2022-10-16T05:42:10;2.17;;;1.47;;
42600;SDS011;28229;48.856;9.088;2022-10-16T05:44:36;1.93;;;1.73;;
42600;SDS011;28229;48.856;9.088;2022-10-16T05:47:03;3.60;;;3.30;;
42600;SDS011;28229;48.856;9.088;2022-10-16T05:49:29;2.40;;;2.20;;
42600;SDS011;28229;48.856;9.088;2022-10-16T05:51:55;3.53;;;1.73;;
42600;SDS011;28229;48.856;9.088;2022-10-16T05:54:21;2.40;;;1.87;;
42600;SDS011;28229;48.856;9.088;2022-10-16T05:56:46;1.63;;;1.40;;
42600;SDS011;28229;48.856;9.088;2022-10-16T05:59:13;3.37;;;1.80;;
42600;SDS011;28229;48.856;9.088;2022-10-16T06:01:38;4.80;;;1.70;;
42600;SDS011;28229;48.856;9.088;2022-10-16T06:04:04;1.73;;;1.63;;
42600;SDS011;28229;48.856;9.088;2022-10-16T06:06:30;1.70;;;1.60;;
42600;SDS011;28229;48.856;9.088;2022-10-16T06:08:56;3.93;;;1.57;;
42600;SDS011;28229;48.856;9.088;2022-10-16T06:11:26;2.60;;;1.90;;
42600;SDS011;28229;48.856;9.088;2022-10-16T06:13:55;3.43;;;1.87;;
42600;SDS011;28229;48.856;9.088;2022-10-16T06:16:23;2.33;;;1.80;;
42600;SDS011;28229;48.856;9.088;2022-10-16T06:18:53;2.03;;;1.83;;
42600;SDS011;28229;48.856;9.088;2022-10-16T06:21:20;2.27;;;1.90;;
42600;SDS011;28229;48.856;9.088;2022-10-16T06:23:50;2.03;;;1.80;;
42600;SDS011;28229;48.856;9.088;2022-10-16T06:26:17;3.27;;;1.60;;
42600;SDS011;28229;48.856;9.088;2022-10-16T06:28:45;2.33;;;1.80;;
42600;SDS011;28229;48.856;9.088;2022-10-16T06:31:11;2.00;;;1.80;;
42600;SDS011;28229;48.856;9.088;2022-10-16T06:33:37;2.73;;;1.90;;
42600;SDS011;28229;48.856;9.088;2022-10-16T06:36:07;2.60;;;1.73;;
42600;SDS011;28229;48.856;9.088;2022-10-16T06:38:35;2.80;;;2.10;;
42600;SDS011;28229;48.856;9.088;2022-10-16T06:41:02;2.10;;;1.90;;
42600;SDS011;28229;48.856;9.088;2022-10-16T06:43:29;3.07;;;1.80;;
42600;SDS011;28229;48.856;9.088;2022-10-16T06:46:00;2.80;;;1.77;;
42600;SDS011;28229;48.856;9.088;2022-10-16T06:48:28;1.70;;;1.60;;
42600;SDS011;28229;48.856;9.088;2022-10-16T06:53:22;4.17;;;1.70;;
42600;SDS011;28229;48.856;9.088;2022-10-16T06:55:47;2.00;;;1.80;;
42600;SDS011;28229;48.856;9.088;2022-10-16T06:58:13;2.23;;;1.70;;
42600;SDS011;28229;48.856;9.088;2022-10-16T07:00:39;1.73;;;1.60;;
42600;SDS011;28229;48.856;9.088;2022-10-16T07:03:05;2.53;;;1.70;;
42600;SDS011;28229;48.856;9.088;2022-10-16T07:05:31;2.63;;;1.90;;
42600;SDS011;28229;48.856;9.088;2022-10-16T07:07:56;3.53;;;1.93;;
42600;SDS011;28229;48.856;9.088;2022-10-16T07:10:23;2.80;;;1.97;;
42600;SDS011;28229;48.856;9.088;2022-10-16T07:12:51;2.90;;;2.10;;
42600;SDS011;28229;48.856;9.088;2022-10-16T07:15:17;2.77;;;2.07;;
42600;SDS011;28229;48.856;9.088;2022-10-16T07:17:43;2.83;;;2.63;;
42600;SDS011;28229;48.856;9.088;2022-10-16T07:20:09;2.97;;;2.50;;
42600;SDS011;28229;48.856;9.088;2022-10-16T07:22:35;3.17;;;2.80;;
42600;SDS011;28229;48.856;9.088;2022-10-16T07:25:00;4.30;;;2.90;;
42600;SDS011;28229;48.856;9.088;2022-10-16T07:27:27;5.30;;;2.60;;
42600;SDS011;28229;48.856;9.088;2022-10-16T07:29:53;2.80;;;2.50;;
42600;SDS011;28229;48.856;9.088;2022-10-16T07:32:19;2.60;;;2.40;;
42600;SDS011;28229;48.856;9.088;2022-10-16T07:34:45;4.40;;;2.97;;
42600;SDS011;28229;48.856;9.088;2022-10-16T07:37:11;3.20;;;2.87;;
42600;SDS011;28229;48.856;9.088;2022-10-16T07:39:36;4.97;;;2.50;;
42600;SDS011;28229;48.856;9.088;2022-10-16T07:42:02;4.73;;;2.90;;
42600;SDS011;28229;48.856;9.088;2022-10-16T07:44:28;4.10;;;3.00;;
42600;SDS011;28229;48.856;9.088;2022-10-16T07:46:54;4.53;;;2.70;;
42600;SDS011;28229;48.856;9.088;2022-10-16T07:49:20;2.77;;;2.53;;
42600;SDS011;28229;48.856;9.088;2022-10-16T07:51:46;2.70;;;2.20;;
42600;SDS011;28229;48.856;9.088;2022-10-16T07:54:11;2.80;;;2.30;;
42600;SDS011;28229;48.856;9.088;2022-10-16T07:56:37;3.53;;;2.07;;
42600;SDS011;28229;48.856;9.088;2022-10-16T07:59:03;2.70;;;1.90;;
42600;SDS011;28229;48.856;9.088;2022-10-16T08:01:29;2.47;;;1.93;;
42600;SDS011;28229;48.856;9.088;2022-10-16T08:03:55;3.57;;;2.23;;
42600;SDS011;28229;48.856;9.088;2022-10-16T08:06:21;4.57;;;2.30;;
42600;SDS011;28229;48.856;9.088;2022-10-16T08:08:49;3.97;;;2.03;;
42600;SDS011;28229;48.856;9.088;2022-10-16T08:11:15;4.47;;;2.43;;
42600;SDS011;28229;48.856;9.088;2022-10-16T08:13:42;2.23;;;2.00;;
42600;SDS011;28229;48.856;9.088;2022-10-16T08:16:08;3.23;;;1.93;;
42600;SDS011;28229;48.856;9.088;2022-10-16T08:18:35;3.10;;;2.10;;
42600;SDS011;28229;48.856;9.088;2022-10-16T08:21:03;6.43;;;2.00;;
42600;SDS011;28229;48.856;9.088;2022-10-16T08:23:30;2.03;;;1.90;;
42600;SDS011;28229;48.856;9.088;2022-10-16T08:26:01;1.93;;;1.70;;
42600;SDS011;28229;48.856;9.088;2022-10-16T08:28:28;1.80;;;1.40;;
42600;SDS011;28229;48.856;9.088;2022-10-16T08:30:54;2.87;;;1.50;;
42600;SDS011;28229;48.856;9.088;2022-10-16T08:33:22;9.23;;;2.93;;
42600;SDS011;28229;48.856;9.088;2022-10-16T08:35:51;3.73;;;2.20;;
42600;SDS011;28229;48.856;9.088;2022-10-16T08:38:19;3.23;;;1.87;;
42600;SDS011;28229;48.856;9.088;2022-10-16T08:40:45;2.03;;;1.70;;
42600;SDS011;28229;48.856;9.088;2022-10-16T08:53:56;2.03;;;1.60;;
42600;SDS011;28229;48.856;9.088;2022-10-16T08:56:24;2.30;;;1.63;;
42600;SDS011;28229;48.856;9.088;2022-10-16T08:58:51;3.43;;;1.87;;
42600;SDS011;28229;48.856;9.088;2022-10-16T09:01:18;3.10;;;1.63;;
42600;SDS011;28229;48.856;9.088;2022-10-16T09:03:58;3.17;;;1.50;;
42600;SDS011;28229;48.856;9.088;2022-10-16T09:06:41;2.07;;;1.60;;
42600;SDS011;28229;48.856;9.088;2022-10-16T09:17:18;4.20;;;1.43;;
42600;SDS011;28229;48.856;9.088;2022-10-16T09:19:49;2.17;;;1.40;;
42600;SDS011;28229;48.856;9.088;2022-10-16T09:22:22;1.80;;;1.40;;
42600;SDS011;28229;48.856;9.088;2022-10-16T09:24:55;2.83;;;1.60;;
42600;SDS011;28229;48.856;9.088;2022-10-16T09:27:26;2.20;;;1.50;;
42600;SDS011;28229;48.856;9.088;2022-10-16T09:29:52;1.87;;;1.67;;
42600;SDS011;28229;48.856;9.088;2022-10-16T09:32:19;2.97;;;1.60;;
42600;SDS011;28229;48.856;9.088;2022-10-16T09:34:51;1.70;;;1.20;;
42600;SDS011;28229;48.856;9.088;2022-10-16T09:37:35;1.37;;;1.27;;
42600;SDS011;28229;48.856;9.088;2022-10-16T09:40:01;2.97;;;1.50;;
42600;SDS011;28229;48.856;9.088;2022-10-16T09:42:30;1.73;;;1.50;;
42600;SDS011;28229;48.856;9.088;2022-10-16T09:44:57;3.27;;;1.83;;
42600;SDS011;28229;48.856;9.088;2022-10-16T09:47:25;1.57;;;1.47;;
42600;SDS011;28229;48.856;9.088;2022-10-16T09:49:56;1.73;;;1.50;;
42600;SDS011;28229;48.856;9.088;2022-10-16T09:52:28;2.00;;;1.80;;
42600;SDS011;28229;48.856;9.088;2022-10-16T09:55:09;5.30;;;1.90;;
42600;SDS011;28229;48.856;9.088;2022-10-16T09:57:51;2.27;;;1.90;;
42600;SDS011;28229;48.856;9.088;2022-10-16T10:00:18;2.60;;;1.80;;
42600;SDS011;28229;48.856;9.088;2022-10-16T10:02:45;4.40;;;2.57;;
42600;SDS011;28229;48.856;9.088;2022-10-16T10:05:21;3.17;;;2.83;;
42600;SDS011;28229;48.856;9.088;2022-10-16T10:07:54;5.13;;;2.80;;
42600;SDS011;28229;48.856;9.088;2022-10-16T10:10:34;2.47;;;1.67;;
42600;SDS011;28229;48.856;9.088;2022-10-16T10:13:21;2.63;;;1.90;;
42600;SDS011;28229;48.856;9.088;2022-10-16T10:15:49;2.67;;;1.47;;
42600;SDS011;28229;48.856;9.088;2022-10-16T10:18:20;4.20;;;1.43;;
42600;SDS011;28229;48.856;9.088;2022-10-16T10:21:01;1.70;;;1.47;;
42600;SDS011;28229;48.856;9.088;2022-10-16T10:23:29;1.87;;;1.43;;
42600;SDS011;28229;48.856;9.088;2022-10-16T10:26:06;1.90;;;1.50;;
42600;SDS011;28229;48.856;9.088;2022-10-16T10:31:29;2.13;;;1.40;;
42600;SDS011;28229;48.856;9.088;2022-10-16T10:34:20;2.37;;;1.50;;
42600;SDS011;28229;48.856;9.088;2022-10-16T10:37:08;2.43;;;1.73;;
42600;SDS011;28229;48.856;9.088;2022-10-16T10:43:13;1.60;;;1.50;;
42600;SDS011;28229;48.856;9.088;2022-10-16T10:45:46;1.87;;;1.40;;
42600;SDS011;28229;48.856;9.088;2022-10-16T10:51:13;1.40;;;1.30;;
42600;SDS011;28229;48.856;9.088;2022-10-16T11:02:21;2.17;;;1.30;;
42600;SDS011;28229;48.856;9.088;2022-10-16T11:07:58;1.47;;;1.30;;
42600;SDS011;28229;48.856;9.088;2022-10-16T11:10:28;1.60;;;1.50;;
42600;SDS011;28229;48.856;9.088;2022-10-16T11:13:11;2.93;;;1.60;;
42600;SDS011;28229;48.856;9.088;2022-10-16T11:15:47;2.83;;;1.40;;
42600;SDS011;28229;48.856;9.088;2022-10-16T11:18:21;1.60;;;1.50;;
42600;SDS011;28229;48.856;9.088;2022-10-16T11:20:54;1.60;;;1.50;;
42600;SDS011;28229;48.856;9.088;2022-10-16T11:26:00;1.70;;;1.60;;
42600;SDS011;28229;48.856;9.088;2022-10-16T11:28:31;1.87;;;1.77;;
42600;SDS011;28229;48.856;9.088;2022-10-16T11:31:16;1.80;;;1.60;;
42600;SDS011;28229;48.856;9.088;2022-10-16T11:34:01;2.08;;;1.70;;
42600;SDS011;28229;48.856;9.088;2022-10-16T11:36:39;2.97;;;1.80;;
42600;SDS011;28229;48.856;9.088;2022-10-16T11:41:45;2.58;;;1.55;;
42600;SDS011;28229;48.856;9.088;2022-10-16T11:47:23;2.20;;;1.60;;
42600;SDS011;28229;48.856;9.088;2022-10-16T11:49:50;2.80;;;1.60;;
42600;SDS011;28229;48.856;9.088;2022-10-16T11:52:25;2.63;;;1.20;;
42600;SDS011;28229;48.856;9.088;2022-10-16T11:55:04;2.08;;;1.55;;
42600;SDS011;28229;48.856;9.088;2022-10-16T11:57:39;3.30;;;1.60;;
42600;SDS011;28229;48.856;9.088;2022-10-16T12:00:24;1.50;;;1.40;;
42600;SDS011;28229;48.856;9.088;2022-10-16T12:08:21;1.50;;;1.30;;
42600;SDS011;28229;48.856;9.088;2022-10-16T12:10:47;2.40;;;1.83;;
42600;SDS011;28229;48.856;9.088;2022-10-16T12:13:29;3.17;;;1.55;;
42600;SDS011;28229;48.856;9.088;2022-10-16T12:18:37;2.75;;;1.58;;
42600;SDS011;28229;48.856;9.088;2022-10-16T12:21:04;1.70;;;1.48;;
42600;SDS011;28229;48.856;9.088;2022-10-16T12:23:32;1.80;;;1.35;;
42600;SDS011;28229;48.856;9.088;2022-10-16T12:26:13;1.60;;;1.50;;
42600;SDS011;28229;48.856;9.088;2022-10-16T12:28:39;1.75;;;1.42;;
42600;SDS011;28229;48.856;9.088;2022-10-16T12:31:07;4.53;;;1.50;;
42600;SDS011;28229;48.856;9.088;2022-10-16T12:33:36;1.58;;;1.45;;
42600;SDS011;28229;48.856;9.088;2022-10-16T12:36:39;1.60;;;1.50;;
42600;SDS011;28229;48.856;9.088;2022-10-16T12:39:03;4.00;;;1.70;;
42600;SDS011;28229;48.856;9.088;2022-10-16T12:41:31;3.72;;;1.58;;
42600;SDS011;28229;48.856;9.088;2022-10-16T12:43:58;1.75;;;1.30;;
42600;SDS011;28229;48.856;9.088;2022-10-16T12:49:19;1.38;;;1.38;;
42600;SDS011;28229;48.856;9.088;2022-10-16T12:51:50;2.42;;;1.30;;
42600;SDS011;28229;48.856;9.088;2022-10-16T12:54:20;3.20;;;1.38;;
42600;SDS011;28229;48.856;9.088;2022-10-16T13:05:04;2.08;;;1.88;;
42600;SDS011;28229;48.856;9.088;2022-10-16T13:14:02;2.15;;;1.42;;
42600;SDS011;28229;48.856;9.088;2022-10-16T13:22:10;2.10;;;1.55;;
42600;SDS011;28229;48.856;9.088;2022-10-16T13:30:39;1.88;;;1.33;;
42600;SDS011;28229;48.856;9.088;2022-10-16T13:33:10;1.55;;;1.45;;
42600;SDS011;28229;48.856;9.088;2022-10-16T13:35:57;2.75;;;1.60;;
42600;SDS011;28229;48.856;9.088;2022-10-16T13:38:24;3.88;;;1.52;;
42600;SDS011;28229;48.856;9.088;2022-10-16T13:40:58;3.78;;;1.58;;
42600;SDS011;28229;48.856;9.088;2022-10-16T13:46:04;1.50;;;1.40;;
42600;SDS011;28229;48.856;9.088;2022-10-16T13:48:33;2.03;;;1.40;;
42600;SDS011;28229;48.856;9.088;2022-10-16T13:51:00;1.73;;;1.35;;
42600;SDS011;28229;48.856;9.088;2022-10-16T13:53:29;1.63;;;1.52;;
42600;SDS011;28229;48.856;9.088;2022-10-16T13:56:00;1.58;;;1.33;;
42600;SDS011;28229;48.856;9.088;2022-10-16T13:58:28;1.77;;;1.50;;
42600;SDS011;28229;48.856;9.088;2022-10-16T14:01:01;1.40;;;1.30;;
42600;SDS011;28229;48.856;9.088;2022-10-16T14:03:30;1.77;;;1.50;;
42600;SDS011;28229;48.856;9.088;2022-10-16T14:05:58;1.55;;;1.48;;
42600;SDS011;28229;48.856;9.088;2022-10-16T14:08:27;1.48;;;1.30;;
42600;SDS011;28229;48.856;9.088;2022-10-16T14:10:56;1.67;;;1.58;;
42600;SDS011;28229;48.856;9.088;2022-10-16T14:13:31;2.53;;;2.17;;
42600;SDS011;28229;48.856;9.088;2022-10-16T14:16:05;3.17;;;2.03;;
42600;SDS011;28229;48.856;9.088;2022-10-16T14:18:32;1.60;;;1.50;;
42600;SDS011;28229;48.856;9.088;2022-10-16T14:21:03;2.85;;;1.75;;
42600;SDS011;28229;48.856;9.088;2022-10-16T14:23:36;1.70;;;1.60;;
42600;SDS011;28229;48.856;9.088;2022-10-16T14:28:33;1.63;;;1.52;;
42600;SDS011;28229;48.856;9.088;2022-10-16T14:31:00;1.60;;;1.50;;
42600;SDS011;28229;48.856;9.088;2022-10-16T14:36:12;3.67;;;1.88;;
42600;SDS011;28229;48.856;9.088;2022-10-16T14:38:42;1.80;;;1.70;;
42600;SDS011;28229;48.856;9.088;2022-10-16T14:41:14;1.90;;;1.80;;
42600;SDS011;28229;48.856;9.088;2022-10-16T14:43:41;3.05;;;1.80;;
42600;SDS011;28229;48.856;9.088;2022-10-16T14:48:46;2.60;;;1.65;;
42600;SDS011;28229;48.856;9.088;2022-10-16T14:51:15;2.03;;;1.90;;
42600;SDS011;28229;48.856;9.088;2022-10-16T14:53:42;1.77;;;1.65;;
42600;SDS011;28229;48.856;9.088;2022-10-16T14:56:30;2.42;;;1.90;;
42600;SDS011;28229;48.856;9.088;2022-10-16T14:59:18;2.28;;;1.70;;
42600;SDS011;28229;48.856;9.088;2022-10-16T15:01:45;3.42;;;1.70;;
42600;SDS011;28229;48.856;9.088;2022-10-16T15:04:12;2.63;;;1.90;;
42600;SDS011;28229;48.856;9.088;2022-10-16T15:06:39;1.92;;;1.83;;
42600;SDS011;28229;48.856;9.088;2022-10-16T15:09:05;2.63;;;1.83;;
42600;SDS011;28229;48.856;9.088;2022-10-16T15:11:31;2.55;;;2.35;;
42600;SDS011;28229;48.856;9.088;2022-10-16T15:13:58;2.53;;;2.10;;
42600;SDS011;28229;48.856;9.088;2022-10-16T15:16:24;4.00;;;2.00;;
42600;SDS011;28229;48.856;9.088;2022-10-16T15:18:50;3.10;;;1.70;;
42600;SDS011;28229;48.856;9.088;2022-10-16T15:21:34;2.92;;;1.88;;
42600;SDS011;28229;48.856;9.088;2022-10-16T15:24:00;2.70;;;2.07;;
42600;SDS011;28229;48.856;9.088;2022-10-16T15:26:27;3.67;;;3.28;;
42600;SDS011;28229;48.856;9.088;2022-10-16T15:28:54;5.30;;;4.43;;
42600;SDS011;28229;48.856;9.088;2022-10-16T15:31:20;4.15;;;3.75;;
42600;SDS011;28229;48.856;9.088;2022-10-16T15:33:51;6.70;;;4.70;;
42600;SDS011;28229;48.856;9.088;2022-10-16T15:36:28;4.97;;;4.35;;
42600;SDS011;28229;48.856;9.088;2022-10-16T15:38:55;10.30;;;8.23;;
42600;SDS011;28229;48.856;9.088;2022-10-16T15:41:21;9.17;;;8.30;;
42600;SDS011;28229;48.856;9.088;2022-10-16T15:43:48;5.10;;;4.57;;
42600;SDS011;28229;48.856;9.088;2022-10-16T15:46:15;3.92;;;3.28;;
42600;SDS011;28229;48.856;9.088;2022-10-16T15:48:43;2.30;;;2.10;;
42600;SDS011;28229;48.856;9.088;2022-10-16T15:51:09;2.47;;;2.28;;
42600;SDS011;28229;48.856;9.088;2022-10-16T15:53:35;2.50;;;2.30;;
42600;SDS011;28229;48.856;9.088;2022-10-16T15:56:02;3.22;;;2.00;;
42600;SDS011;28229;48.856;9.088;2022-10-16T15:58:29;2.50;;;2.30;;
42600;SDS011;28229;48.856;9.088;2022-10-16T16:00:56;2.20;;;2.03;;
42600;SDS011;28229;48.856;9.088;2022-10-16T16:03:23;2.70;;;2.07;;
42600;SDS011;28229;48.856;9.088;2022-10-16T16:05:49;2.35;;;1.80;;
42600;SDS011;28229;48.856;9.088;2022-10-16T16:08:14;2.85;;;1.80;;
42600;SDS011;28229;48.856;9.088;2022-10-16T16:10:40;3.43;;;1.93;;
42600;SDS011;28229;48.856;9.088;2022-10-16T16:13:06;3.23;;;1.77;;
42600;SDS011;28229;48.856;9.088;2022-10-16T16:15:32;2.23;;;2.03;;
42600;SDS011;28229;48.856;9.088;2022-10-16T16:17:58;2.33;;;2.00;;
42600;SDS011;28229;48.856;9.088;2022-10-16T16:20:24;2.63;;;2.10;;
42600;SDS011;28229;48.856;9.088;2022-10-16T16:22:49;2.90;;;2.27;;
42600;SDS011;28229;48.856;9.088;2022-10-16T16:25:16;3.07;;;2.00;;
42600;SDS011;28229;48.856;9.088;2022-10-16T16:27:42;2.63;;;2.10;;
42600;SDS011;28229;48.856;9.088;2022-10-16T16:30:10;2.77;;;2.00;;
42600;SDS011;28229;48.856;9.088;2022-10-16T16:32:36;2.67;;;2.47;;
42600;SDS011;28229;48.856;9.088;2022-10-16T16:35:03;3.43;;;2.80;;
42600;SDS011;28229;48.856;9.088;2022-10-16T16:37:29;4.17;;;2.90;;
42600;SDS011;28229;48.856;9.088;2022-10-16T16:39:55;5.23;;;4.73;;
42600;SDS011;28229;48.856;9.088;2022-10-16T16:42:26;3.40;;;3.10;;
42600;SDS011;28229;48.856;9.088;2022-10-16T16:44:53;3.90;;;2.80;;